87XS weather

Cinco B Ranch Airport
Medina, Texas, United States

Public forecast

Using degrees Fahrenheit for public forecast. Weather courtesy of forecast.io.

Closest aviation weather report (METAR) to Cinco B Ranch Airport

Closest report is Kerrville Municipal Louis Schreiner Field, 14.6 nm (27.1 km) NE. Retrieved 2019/10/23 12:35 UTC (0 seconds ago):

KERV 231235Z AUTO 00000KT 10SM CLR 09/07 A3010 RMK AO2 T00920070

Closest aviation forecast (TAF) to Cinco B Ranch Airport

Closest forecast is Lackland Air Force Base, 43.1 nm (79.7 km) SE. Retrieved 2019/10/23 10:09 UTC (2 hours ago):

TAF KSKF 231000Z 2310/2416 VRB06KT 9999 SKC QNH3000INS BECMG 2314/2315 16012G18KT 9999 FEW050 QNH2992INS TEMPO 2315/2321 16015G25KT BECMG 2400/2401 15010KT 9999 FEW025 QNH2990INS BECMG 2408/2409 15007KT 9999 BKN020 QNH2996INS TX29/2321Z TN12/2312Z